Terminal Aerodrome Forecast
Issued by NWS Sioux Falls, SD

Home | Current Version | Previous Version | Text Only | Print | Product List | Glossary On
Versions: 1 2 3 4 5 6 7 8 9 10 11 12 13 14 15 16
000
FTUS43 KFSD 241128
TAFSUX
TAF
KSUX 241128Z 2412/2512 VRB03KT P6SM SCT008 OVC250
      TEMPO 2412/2414 BKN008
     FM242100 14007KT P6SM FEW080 SCT110
     FM242300 14008KT P6SM SCT050 BKN100 PROB30 2505/2508 4SM TSRA
      OVC040CB
     FM250800 13007KT 6SM SHRA VCTS OVC040CB=

USA.gov is the U.S. government's official web portal to all federal, state and local government web resources and services.